Time;durP1;ratioP1;P1;durP2;ratioP2;P2;SDS_P1;SDS_P2;PMS_P1;PMS_P2;Temp;Humidity;BMP_temperature;BMP_pressure;BME280_temperature;BME280_humidity;BME280_pressure;Samples;Min_cycle;Max_cycle;Signal;HPM_P1;HPM_P2
2021/10/04 00:00:42;;;;;;;;;;;20.90;64.10;;;;;;5055686;28;1316;-70
2021/10/04 00:03:07;;;;;;;;;;;20.80;64.00;;;;;;5055585;28;1339;-70
2021/10/04 00:05:33;;;;;;;;;;;20.80;64.10;;;;;;5055511;28;1289;-72
2021/10/04 00:07:58;;;;;;;;;;;20.80;64.10;;;;;;5055570;28;1011;-70
2021/10/04 00:10:24;;;;;;;;;;;20.80;64.10;;;;;;5055123;28;1313;-71
2021/10/04 00:12:49;;;;;;;;;;;20.80;64.10;;;;;;5054975;28;1361;-71
2021/10/04 00:15:15;;;;;;;;;;;20.80;64.10;;;;;;5055307;28;1898;-70
2021/10/04 00:17:41;;;;;;;;;;;20.80;64.20;;;;;;5055408;28;1346;-70
2021/10/04 00:20:07;;;;;;;;;;;20.80;64.20;;;;;;5055103;28;1391;-70
2021/10/04 00:22:32;;;;;;;;;;;20.80;64.20;;;;;;5053900;28;1220;-71
2021/10/04 00:24:58;;;;;;;;;;;20.80;64.20;;;;;;5055166;28;1344;-69
2021/10/04 00:27:23;;;;;;;;;;;20.80;64.30;;;;;;5055350;28;1338;-70
2021/10/04 00:29:49;;;;;;;;;;;20.80;64.30;;;;;;5054929;28;1304;-70
2021/10/04 00:32:14;;;;;;;;;;;20.80;64.30;;;;;;5054896;28;1382;-70
2021/10/04 00:34:39;;;;;;;;;;;20.80;64.30;;;;;;5055021;28;1261;-71
2021/10/04 00:37:05;;;;;;;;;;;20.80;64.30;;;;;;5055005;28;1938;-70
2021/10/04 00:39:32;;;;;;;;;;;20.80;64.40;;;;;;5054898;28;1224;-70
2021/10/04 00:41:58;;;;;;;;;;;20.80;64.40;;;;;;5054549;28;1302;-69
2021/10/04 00:44:23;;;;;;;;;;;20.80;64.40;;;;;;5054619;28;1316;-70
2021/10/04 00:46:50;;;;;;;;;;;20.80;64.50;;;;;;5048997;28;1536;-70
2021/10/04 00:49:15;;;;;;;;;;;20.80;64.40;;;;;;5054887;28;1277;-70
2021/10/04 00:51:40;;;;;;;;;;;20.80;64.50;;;;;;5054411;28;1373;-70
2021/10/04 00:54:06;;;;;;;;;;;20.80;64.50;;;;;;5054683;28;1320;-71
2021/10/04 00:56:32;;;;;;;;;;;20.80;64.60;;;;;;5054350;28;1965;-71
2021/10/04 00:58:57;;;;;;;;;;;20.80;64.60;;;;;;5054676;28;1307;-71
2021/10/04 01:01:28;;;;;;;;;;;20.80;64.60;;;;;;5054168;28;1378;-71
2021/10/04 01:03:54;;;;;;;;;;;20.70;64.50;;;;;;5054633;28;1299;-72
2021/10/04 01:06:19;;;;;;;;;;;20.80;64.60;;;;;;5054495;28;1103;-72
2021/10/04 01:08:45;;;;;;;;;;;20.80;64.70;;;;;;5054390;28;1091;-70
2021/10/04 01:11:10;;;;;;;;;;;20.70;64.60;;;;;;5053892;28;1320;-71
2021/10/04 01:13:35;;;;;;;;;;;20.70;64.60;;;;;;5069806;28;1310;-71
2021/10/04 01:16:01;;;;;;;;;;;20.70;64.60;;;;;;5054257;28;1898;-71
2021/10/04 01:18:26;;;;;;;;;;;20.80;64.70;;;;;;5054346;28;1301;-72
2021/10/04 01:20:52;;;;;;;;;;;20.70;64.70;;;;;;5053945;28;1353;-71
2021/10/04 01:23:17;;;;;;;;;;;20.70;64.70;;;;;;5053953;28;1425;-69
2021/10/04 01:25:43;;;;;;;;;;;20.80;64.80;;;;;;5053866;28;1081;-71
2021/10/04 01:28:08;;;;;;;;;;;20.70;64.80;;;;;;5049554;28;1130;-70
2021/10/04 01:30:33;;;;;;;;;;;20.70;64.80;;;;;;5053579;28;1250;-70
2021/10/04 01:32:59;;;;;;;;;;;20.80;64.80;;;;;;5053873;28;1368;-70
2021/10/04 01:35:24;;;;;;;;;;;20.70;64.80;;;;;;5052503;28;1894;-70
2021/10/04 01:37:50;;;;;;;;;;;20.70;64.80;;;;;;5053796;28;1320;-70
2021/10/04 01:40:15;;;;;;;;;;;20.70;64.80;;;;;;5053253;28;1464;-70
2021/10/04 01:42:41;;;;;;;;;;;20.80;64.80;;;;;;5053718;28;1332;-70
2021/10/04 01:45:08;;;;;;;;;;;20.80;64.80;;;;;;5053638;28;1255;-69
2021/10/04 01:47:33;;;;;;;;;;;20.80;64.80;;;;;;5047641;28;1154;-70
2021/10/04 01:49:59;;;;;;;;;;;20.80;64.80;;;;;;5053437;28;1317;-70
2021/10/04 01:52:24;;;;;;;;;;;20.80;64.70;;;;;;5054139;28;1575;-69
2021/10/04 01:54:49;;;;;;;;;;;20.80;64.70;;;;;;5052201;28;1382;-72
2021/10/04 01:57:15;;;;;;;;;;;20.80;64.60;;;;;;5052621;28;1898;-71
2021/10/04 01:59:40;;;;;;;;;;;20.80;64.60;;;;;;5053363;28;1313;-71
2021/10/04 02:02:06;;;;;;;;;;;20.90;64.50;;;;;;5052976;28;1401;-72
2021/10/04 02:04:31;;;;;;;;;;;20.90;64.50;;;;;;5038928;28;937;-72
2021/10/04 02:06:57;;;;;;;;;;;20.90;64.50;;;;;;5053164;28;1371;-72
2021/10/04 02:09:22;;;;;;;;;;;20.90;64.40;;;;;;5053113;28;1258;-72
2021/10/04 02:11:47;;;;;;;;;;;20.90;64.40;;;;;;5051675;28;1329;-72
2021/10/04 02:14:13;;;;;;;;;;;21.00;64.50;;;;;;5052236;28;1370;-72
2021/10/04 02:16:38;;;;;;;;;;;20.90;64.30;;;;;;5053046;28;1903;-72
2021/10/04 02:19:04;;;;;;;;;;;20.90;64.30;;;;;;5053166;28;1335;-71
2021/10/04 02:21:29;;;;;;;;;;;21.00;64.30;;;;;;5051636;28;1404;-70
2021/10/04 02:23:55;;;;;;;;;;;21.00;64.30;;;;;;5052757;28;1329;-70
2021/10/04 02:26:21;;;;;;;;;;;21.00;64.30;;;;;;5052983;28;1391;-71
2021/10/04 02:28:46;;;;;;;;;;;21.00;64.20;;;;;;5053188;28;1114;-71
2021/10/04 02:31:11;;;;;;;;;;;21.00;64.20;;;;;;5052779;28;1345;-71
2021/10/04 02:33:37;;;;;;;;;;;21.00;64.20;;;;;;5052783;28;1348;-71
2021/10/04 02:36:02;;;;;;;;;;;21.00;64.20;;;;;;5052858;28;1909;-70
2021/10/04 02:38:28;;;;;;;;;;;21.00;64.10;;;;;;5051465;28;1363;-70
2021/10/04 02:40:53;;;;;;;;;;;21.00;64.10;;;;;;5052577;28;1315;-69
2021/10/04 02:43:20;;;;;;;;;;;21.00;64.10;;;;;;5052793;28;1242;-69
2021/10/04 02:45:46;;;;;;;;;;;21.00;64.10;;;;;;5052527;28;1263;-72
2021/10/04 02:48:12;;;;;;;;;;;21.00;64.10;;;;;;5062439;28;1130;-72
2021/10/04 02:50:37;;;;;;;;;;;21.00;64.10;;;;;;5052448;28;1454;-72
2021/10/04 02:53:02;;;;;;;;;;;21.00;64.10;;;;;;5051415;28;1383;-72
2021/10/04 02:55:28;;;;;;;;;;;21.00;64.10;;;;;;5067684;28;1964;-73
2021/10/04 02:57:53;;;;;;;;;;;21.00;64.10;;;;;;5068384;28;1282;-72
2021/10/04 03:00:19;;;;;;;;;;;21.00;64.10;;;;;;5068127;28;1375;-73
2021/10/04 03:02:44;;;;;;;;;;;21.00;64.20;;;;;;5052628;28;1365;-72
2021/10/04 03:05:10;;;;;;;;;;;21.00;64.20;;;;;;5068063;28;1166;-72
2021/10/04 03:07:35;;;;;;;;;;;21.00;64.20;;;;;;5052588;28;1323;-71
2021/10/04 03:10:00;;;;;;;;;;;21.00;64.20;;;;;;5056310;28;1410;-72
2021/10/04 03:12:26;;;;;;;;;;;21.00;64.20;;;;;;5056564;28;1276;-71
2021/10/04 03:14:51;;;;;;;;;;;21.00;64.30;;;;;;5056573;28;1372;-71
2021/10/04 03:17:17;;;;;;;;;;;21.00;64.30;;;;;;5055453;28;1898;-72
2021/10/04 03:19:42;;;;;;;;;;;21.00;64.30;;;;;;5055094;28;1299;-72
2021/10/04 03:22:08;;;;;;;;;;;21.00;64.40;;;;;;5055999;28;1274;-71
2021/10/04 03:24:33;;;;;;;;;;;21.00;64.40;;;;;;5056280;28;1437;-72
2021/10/04 03:26:59;;;;;;;;;;;21.00;64.40;;;;;;5056548;28;1361;-72
2021/10/04 03:29:24;;;;;;;;;;;21.00;64.50;;;;;;5055024;28;1371;-71
2021/10/04 03:31:49;;;;;;;;;;;21.00;64.50;;;;;;5055954;28;1259;-72
2021/10/04 03:34:15;;;;;;;;;;;21.00;64.50;;;;;;5055232;28;1397;-72
2021/10/04 03:36:40;;;;;;;;;;;21.00;64.50;;;;;;5056012;28;1954;-72
2021/10/04 03:39:07;;;;;;;;;;;21.00;64.50;;;;;;5055866;28;1297;-73
2021/10/04 03:41:33;;;;;;;;;;;21.00;64.50;;;;;;5054561;28;1433;-72
2021/10/04 03:43:58;;;;;;;;;;;21.00;64.50;;;;;;5055904;28;1341;-72
2021/10/04 03:46:24;;;;;;;;;;;20.90;64.50;;;;;;5052529;28;1376;-72
2021/10/04 03:48:49;;;;;;;;;;;20.90;64.50;;;;;;5053465;28;1250;-72
2021/10/04 03:51:15;;;;;;;;;;;20.90;64.60;;;;;;5054533;28;1212;-72
2021/10/04 03:53:40;;;;;;;;;;;20.90;64.60;;;;;;5054307;28;1207;-72
2021/10/04 03:56:06;;;;;;;;;;;20.90;64.70;;;;;;5055901;28;1910;-72
2021/10/04 03:58:31;;;;;;;;;;;20.90;64.70;;;;;;5055750;28;1397;-72
2021/10/04 04:00:56;;;;;;;;;;;20.90;64.70;;;;;;5055491;28;1067;-72
2021/10/04 04:03:22;;;;;;;;;;;20.90;64.70;;;;;;5055589;28;1335;-72
2021/10/04 04:05:47;;;;;;;;;;;20.90;64.70;;;;;;5055611;28;1367;-71
2021/10/04 04:08:13;;;;;;;;;;;20.90;64.80;;;;;;5055591;28;1507;-72
2021/10/04 04:10:38;;;;;;;;;;;20.90;64.80;;;;;;5055284;28;1327;-72
2021/10/04 04:13:04;;;;;;;;;;;20.90;64.70;;;;;;5054330;28;1427;-72
2021/10/04 04:15:29;;;;;;;;;;;20.90;64.80;;;;;;5055264;28;1910;-72
2021/10/04 04:17:54;;;;;;;;;;;20.90;64.70;;;;;;5055516;28;1075;-72
2021/10/04 04:20:20;;;;;;;;;;;20.90;64.80;;;;;;5054383;28;1079;-72
2021/10/04 04:22:46;;;;;;;;;;;21.00;64.80;;;;;;5053830;28;1276;-72
2021/10/04 04:25:12;;;;;;;;;;;21.00;64.70;;;;;;5053767;28;1266;-72
2021/10/04 04:27:37;;;;;;;;;;;21.00;64.70;;;;;;5048234;28;1143;-72
2021/10/04 04:30:07;;;;;;;;;;;21.00;64.70;;;;;;5053774;28;1331;-72
2021/10/04 04:32:32;;;;;;;;;;;21.00;64.60;;;;;;5053863;28;1382;-73
2021/10/04 04:34:57;;;;;;;;;;;21.00;64.60;;;;;;5055123;28;1298;-72
2021/10/04 04:37:23;;;;;;;;;;;21.00;64.60;;;;;;5054808;28;2026;-72
2021/10/04 04:39:48;;;;;;;;;;;21.00;64.50;;;;;;5066836;22;2054;-72
2021/10/04 04:42:14;;;;;;;;;;;21.00;64.50;;;;;;5054867;28;1142;-72
2021/10/04 04:44:39;;;;;;;;;;;21.00;64.50;;;;;;5053562;28;1352;-72
2021/10/04 04:47:05;;;;;;;;;;;21.10;64.50;;;;;;5047696;28;1300;-72
2021/10/04 04:49:30;;;;;;;;;;;21.10;64.60;;;;;;5053611;28;1425;-72
2021/10/04 04:51:56;;;;;;;;;;;21.10;64.50;;;;;;5053026;28;1301;-72
2021/10/04 04:54:21;;;;;;;;;;;21.10;64.50;;;;;;5054763;28;1114;-73
2021/10/04 04:56:47;;;;;;;;;;;21.10;64.40;;;;;;5036810;28;1902;-72
2021/10/04 04:59:12;;;;;;;;;;;21.10;64.50;;;;;;5053356;28;1397;-72
2021/10/04 05:01:38;;;;;;;;;;;21.10;64.50;;;;;;5054356;28;1264;-72
2021/10/04 05:04:03;;;;;;;;;;;21.10;64.40;;;;;;5054582;28;1071;-72
2021/10/04 05:06:29;;;;;;;;;;;21.10;64.40;;;;;;5054252;28;1358;-72
2021/10/04 05:08:54;;;;;;;;;;;21.10;64.50;;;;;;5053132;28;1286;-72
2021/10/04 05:11:20;;;;;;;;;;;21.10;64.40;;;;;;5054128;28;1214;-73
2021/10/04 05:13:46;;;;;;;;;;;21.10;64.40;;;;;;5054482;28;1334;-73
2021/10/04 05:16:12;;;;;;;;;;;21.10;64.40;;;;;;5053110;28;1894;-72
2021/10/04 05:18:38;;;;;;;;;;;21.10;64.40;;;;;;5054333;28;1289;-72
2021/10/04 05:21:03;;;;;;;;;;;21.10;64.40;;;;;;5052332;28;1092;-73
2021/10/04 05:23:30;;;;;;;;;;;21.10;64.30;;;;;;5054248;28;1043;-72
2021/10/04 05:25:56;;;;;;;;;;;21.10;64.30;;;;;;5054062;28;1134;-72
2021/10/04 05:28:21;;;;;;;;;;;21.10;64.30;;;;;;5052820;28;1264;-72
2021/10/04 05:30:46;;;;;;;;;;;21.10;64.30;;;;;;5053729;28;1377;-72
2021/10/04 05:33:12;;;;;;;;;;;21.10;64.30;;;;;;5054122;28;1343;-72
2021/10/04 05:35:37;;;;;;;;;;;21.10;64.30;;;;;;5053594;28;1894;-73
2021/10/04 05:38:03;;;;;;;;;;;21.10;64.30;;;;;;5053835;28;1324;-73
2021/10/04 05:40:28;;;;;;;;;;;21.10;64.30;;;;;;5066958;28;1177;-72
2021/10/04 05:42:54;;;;;;;;;;;21.10;64.30;;;;;;5052492;28;1357;-72
2021/10/04 05:45:19;;;;;;;;;;;21.10;64.30;;;;;;5053284;28;1372;-71
2021/10/04 05:47:45;;;;;;;;;;;21.10;64.30;;;;;;5046426;28;1185;-71
2021/10/04 05:50:10;;;;;;;;;;;21.10;64.30;;;;;;5053132;28;1283;-72
2021/10/04 05:52:36;;;;;;;;;;;21.10;64.30;;;;;;5068943;28;1326;-71
2021/10/04 05:55:02;;;;;;;;;;;21.10;64.30;;;;;;5052374;28;1068;-73
2021/10/04 05:57:28;;;;;;;;;;;21.10;64.30;;;;;;5052641;28;1902;-72
2021/10/04 05:59:55;;;;;;;;;;;21.20;64.30;;;;;;5053307;28;1276;-71
2021/10/04 06:02:20;;;;;;;;;;;21.20;64.40;;;;;;5052286;28;1088;-71
2021/10/04 06:04:45;;;;;;;;;;;21.20;64.30;;;;;;5053085;28;1349;-71
2021/10/04 06:07:11;;;;;;;;;;;21.20;64.30;;;;;;5052317;28;1107;-71
2021/10/04 06:09:37;;;;;;;;;;;21.20;64.30;;;;;;5053117;28;1268;-71
2021/10/04 06:12:02;;;;;;;;;;;21.20;64.30;;;;;;5035472;28;1373;-71
2021/10/04 06:14:27;;;;;;;;;;;21.20;64.30;;;;;;5053011;28;1356;-71
2021/10/04 06:16:55;;;;;;;;;;;21.20;64.30;;;;;;5051905;28;1953;-71
2021/10/04 06:19:21;;;;;;;;;;;21.20;64.30;;;;;;5052833;28;1358;-71
2021/10/04 06:21:46;;;;;;;;;;;21.20;64.30;;;;;;5053096;28;1183;-72
2021/10/04 06:24:11;;;;;;;;;;;21.20;64.30;;;;;;5053058;28;1163;-71
2021/10/04 06:26:37;;;;;;;;;;;21.20;64.30;;;;;;5052962;28;1275;-71
2021/10/04 06:29:02;;;;;;;;;;;21.20;64.30;;;;;;5052882;28;1279;-71
2021/10/04 06:31:28;;;;;;;;;;;21.20;64.30;;;;;;5052893;28;1162;-71
2021/10/04 06:33:53;;;;;;;;;;;21.20;64.30;;;;;;5051484;28;1366;-72
2021/10/04 06:36:19;;;;;;;;;;;21.20;64.30;;;;;;5052848;28;1902;-71
2021/10/04 06:38:44;;;;;;;;;;;21.20;64.30;;;;;;5052828;28;1336;-71
2021/10/04 06:41:09;;;;;;;;;;;21.20;64.30;;;;;;5064692;28;1118;-71
2021/10/04 06:43:35;;;;;;;;;;;21.20;64.30;;;;;;5051189;28;1318;-71
2021/10/04 06:46:00;;;;;;;;;;;21.20;64.30;;;;;;5052457;28;1158;-71
2021/10/04 06:48:26;;;;;;;;;;;21.20;64.30;;;;;;5045659;28;1305;-71
2021/10/04 06:50:53;;;;;;;;;;;21.20;64.30;;;;;;5052474;28;1192;-71
2021/10/04 06:53:18;;;;;;;;;;;21.20;64.30;;;;;;5052745;28;1298;-71
2021/10/04 06:55:45;;;;;;;;;;;21.20;63.80;;;;;;5051722;28;1968;-72
2021/10/04 06:58:11;;;;;;;;;;;21.20;63.30;;;;;;5051487;28;1257;-72
2021/10/04 07:00:37;;;;;;;;;;;21.20;63.10;;;;;;5051339;28;1095;-72
2021/10/04 07:03:02;;;;;;;;;;;21.20;62.50;;;;;;5052440;28;1170;-71
2021/10/04 07:05:28;;;;;;;;;;;21.20;62.90;;;;;;5052655;28;1141;-71
2021/10/04 07:07:56;;;;;;;;;;;21.20;63.20;;;;;;5052651;28;1309;-71
2021/10/04 07:10:22;;;;;;;;;;;21.20;63.30;;;;;;5052447;28;1301;-71
2021/10/04 07:12:47;;;;;;;;;;;21.20;63.40;;;;;;5051448;28;1175;-72
2021/10/04 07:15:13;;;;;;;;;;;21.20;63.50;;;;;;5052821;28;1340;-71
2021/10/04 07:17:38;;;;;;;;;;;21.20;63.60;;;;;;5052367;28;1901;-71
2021/10/04 07:20:04;;;;;;;;;;;21.20;63.60;;;;;;5051147;28;1277;-71
2021/10/04 07:22:30;;;;;;;;;;;21.20;63.70;;;;;;5052393;28;1232;-72
2021/10/04 07:24:58;;;;;;;;;;;21.20;64.50;;;;;;5051408;28;1158;-71
2021/10/04 07:27:24;;;;;;;;;;;21.20;63.70;;;;;;5051299;28;1306;-71
2021/10/04 07:29:49;;;;;;;;;;;21.20;63.70;;;;;;5052186;28;1344;-71
2021/10/04 07:32:15;;;;;;;;;;;21.20;63.80;;;;;;5052236;28;1079;-72
2021/10/04 07:34:40;;;;;;;;;;;21.20;63.80;;;;;;5051046;28;1284;-71
2021/10/04 07:37:05;;;;;;;;;;;21.20;63.80;;;;;;5050981;28;2018;-72
2021/10/04 07:39:31;;;;;;;;;;;21.20;63.70;;;;;;5059965;28;1303;-71
2021/10/04 07:41:57;;;;;;;;;;;21.20;63.80;;;;;;5056496;28;1336;-71
2021/10/04 07:44:23;;;;;;;;;;;21.20;63.80;;;;;;5051169;28;1127;-71
2021/10/04 07:46:49;;;;;;;;;;;21.20;64.00;;;;;;5027896;28;1283;-71
2021/10/04 07:49:14;;;;;;;;;;;21.20;64.00;;;;;;5051019;28;1349;-71
2021/10/04 07:51:39;;;;;;;;;;;21.20;64.00;;;;;;5050800;28;1246;-71
2021/10/04 07:54:05;;;;;;;;;;;21.20;64.00;;;;;;5052075;28;1110;-71
2021/10/04 07:56:30;;;;;;;;;;;21.20;64.10;;;;;;5054962;28;1917;-71
2021/10/04 07:58:57;;;;;;;;;;;21.20;64.10;;;;;;5055691;28;1318;-71
2021/10/04 08:01:22;;;;;;;;;;;21.20;64.20;;;;;;5055295;28;1343;-71
2021/10/04 08:03:48;;;;;;;;;;;21.20;64.20;;;;;;5055707;28;1261;-72
2021/10/04 08:06:13;;;;;;;;;;;21.20;64.30;;;;;;5055558;28;1123;-71
2021/10/04 08:08:39;;;;;;;;;;;21.20;64.30;;;;;;5055540;28;1256;-71
2021/10/04 08:11:04;;;;;;;;;;;21.20;64.40;;;;;;5054125;28;1076;-71
2021/10/04 08:13:30;;;;;;;;;;;21.20;64.40;;;;;;5054184;28;1330;-72
2021/10/04 08:15:55;;;;;;;;;;;21.20;64.40;;;;;;5055261;28;1898;-70
2021/10/04 08:18:21;;;;;;;;;;;21.20;64.50;;;;;;5054075;28;1291;-72
2021/10/04 08:20:46;;;;;;;;;;;21.20;64.50;;;;;;5055129;28;1336;-71
2021/10/04 08:23:13;;;;;;;;;;;21.10;64.50;;;;;;5055289;28;1377;-70
2021/10/04 08:25:38;;;;;;;;;;;21.20;64.60;;;;;;5055295;28;1071;-71
2021/10/04 08:28:04;;;;;;;;;;;21.10;64.70;;;;;;5048719;28;1362;-71
2021/10/04 08:30:29;;;;;;;;;;;21.10;64.70;;;;;;5054910;28;1326;-71
2021/10/04 08:32:55;;;;;;;;;;;21.10;64.70;;;;;;5055240;28;1165;-71
2021/10/04 08:35:20;;;;;;;;;;;21.10;64.80;;;;;;5054931;28;1393;-71
2021/10/04 08:37:46;;;;;;;;;;;21.10;64.90;;;;;;5049603;28;2020;-72
2021/10/04 08:40:12;;;;;;;;;;;21.10;64.90;;;;;;5055842;28;1226;-70
2021/10/04 08:42:37;;;;;;;;;;;21.10;65.00;;;;;;5046044;28;1840;-70
2021/10/04 08:45:03;;;;;;;;;;;21.10;65.10;;;;;;5050446;28;1018;-71
2021/10/04 08:47:30;;;;;;;;;;;21.10;65.10;;;;;;5049814;28;2197;-71
2021/10/04 08:49:56;;;;;;;;;;;21.10;65.20;;;;;;5041710;28;1888;-71
2021/10/04 08:52:21;;;;;;;;;;;21.10;65.20;;;;;;5043526;28;1967;-71
2021/10/04 08:54:46;;;;;;;;;;;21.10;65.30;;;;;;5038037;28;2254;-71
2021/10/04 08:57:12;;;;;;;;;;;21.10;65.40;;;;;;5052873;28;1976;-71
2021/10/04 08:59:38;;;;;;;;;;;21.10;65.40;;;;;;5054635;28;1370;-71
2021/10/04 09:02:19;;;;;;;;;;;21.10;65.40;;;;;;5053265;28;1075;-71
2021/10/04 09:04:45;;;;;;;;;;;21.10;65.40;;;;;;5053205;28;1422;-71
2021/10/04 09:07:10;;;;;;;;;;;21.10;65.50;;;;;;5053136;28;1087;-70
2021/10/04 09:09:36;;;;;;;;;;;21.10;65.50;;;;;;5053149;28;1209;-71
2021/10/04 09:12:01;;;;;;;;;;;21.10;65.50;;;;;;5053109;28;1389;-71
2021/10/04 09:14:26;;;;;;;;;;;21.10;65.60;;;;;;5052935;28;1362;-71
2021/10/04 09:16:56;;;;;;;;;;;21.10;65.60;;;;;;5054426;28;1959;-71
2021/10/04 09:19:31;;;;;;;;;;;21.10;65.70;;;;;;5052820;28;1534;-71
2021/10/04 09:22:07;;;;;;;;;;;21.10;65.80;;;;;;5052935;28;1072;-71
2021/10/04 09:24:33;;;;;;;;;;;21.10;65.80;;;;;;5054114;28;1107;-71
2021/10/04 09:26:58;;;;;;;;;;;21.10;65.80;;;;;;5052897;28;1127;-71
2021/10/04 09:29:27;;;;;;;;;;;21.10;65.90;;;;;;5036117;28;1283;-71
2021/10/04 09:31:52;;;;;;;;;;;21.10;65.90;;;;;;5052721;28;1134;-71
2021/10/04 09:34:18;;;;;;;;;;;21.10;65.90;;;;;;5052811;28;1135;-71
2021/10/04 09:36:44;;;;;;;;;;;21.10;65.90;;;;;;5052861;28;1972;-71
2021/10/04 09:39:17;;;;;;;;;;;21.10;66.00;;;;;;5057124;28;1295;-71
2021/10/04 09:41:54;;;;;;;;;;;21.10;66.00;;;;;;5060145;28;1334;-71
2021/10/04 09:44:20;;;;;;;;;;;21.10;66.00;;;;;;5052485;28;1279;-71
2021/10/04 09:46:45;;;;;;;;;;;21.00;66.00;;;;;;5047895;28;1403;-71
2021/10/04 09:49:10;;;;;;;;;;;21.00;66.70;;;;;;5052460;28;1362;-71
2021/10/04 09:51:36;;;;;;;;;;;21.00;66.00;;;;;;5052316;28;1239;-71
2021/10/04 09:54:08;;;;;;;;;;;21.00;66.00;;;;;;5052112;28;1386;-71
2021/10/04 09:56:34;;;;;;;;;;;21.00;66.10;;;;;;5052161;28;1910;-71
2021/10/04 09:58:59;;;;;;;;;;;21.00;66.10;;;;;;5052501;28;1369;-71
2021/10/04 10:01:25;;;;;;;;;;;21.00;66.10;;;;;;5052012;28;1278;-71
2021/10/04 10:03:50;;;;;;;;;;;21.00;66.10;;;;;;5052706;28;1158;-71
2021/10/04 10:06:17;;;;;;;;;;;21.00;66.10;;;;;;5051948;28;1048;-71
2021/10/04 10:08:42;;;;;;;;;;;21.00;66.20;;;;;;5053217;28;1274;-71
2021/10/04 10:11:08;;;;;;;;;;;21.00;66.20;;;;;;5052114;28;1103;-71
2021/10/04 10:13:33;;;;;;;;;;;21.00;66.20;;;;;;5052229;28;1278;-71
2021/10/04 10:16:05;;;;;;;;;;;21.00;66.20;;;;;;5053672;28;1955;-71
2021/10/04 10:18:49;;;;;;;;;;;21.00;66.20;;;;;;5052652;28;1363;-71
2021/10/04 10:21:19;;;;;;;;;;;21.00;66.30;;;;;;5053037;28;1321;-70
2021/10/04 10:23:52;;;;;;;;;;;21.00;66.30;;;;;;5049176;28;1865;-71
2021/10/04 10:26:36;;;;;;;;;;;21.00;66.30;;;;;;5051666;28;1330;-71
2021/10/04 10:29:12;;;;;;;;;;;21.00;66.20;;;;;;5046725;28;1530;-71
2021/10/04 10:31:50;;;;;;;;;;;21.00;66.30;;;;;;5046825;28;1910;-71
2021/10/04 10:34:35;;;;;;;;;;;20.90;66.30;;;;;;5047485;28;1110;-71
2021/10/04 10:37:06;;;;;;;;;;;20.90;66.20;;;;;;5044721;28;1906;-72
2021/10/04 10:39:33;;;;;;;;;;;20.90;66.30;;;;;;5042331;22;3640;-71
2021/10/04 10:42:09;;;;;;;;;;;20.90;66.40;;;;;;4996049;28;1143;-71
2021/10/04 10:44:34;;;;;;;;;;;20.90;66.30;;;;;;5012750;28;1314;-71
2021/10/04 10:47:00;;;;;;;;;;;20.90;66.30;;;;;;5011688;28;1652;-71
2021/10/04 10:49:44;;;;;;;;;;;20.90;66.30;;;;;;5012940;28;1338;-71
2021/10/04 10:52:19;;;;;;;;;;;20.90;66.30;;;;;;5011781;28;1375;-71
2021/10/04 10:54:44;;;;;;;;;;;20.90;66.30;;;;;;5012531;28;1326;-70
2021/10/04 10:57:10;;;;;;;;;;;20.90;66.50;;;;;;5012399;28;1910;-70
2021/10/04 10:59:35;;;;;;;;;;;20.90;66.40;;;;;;5012513;28;1300;-70
2021/10/04 11:02:00;;;;;;;;;;;20.90;66.40;;;;;;4994398;28;1539;-71
2021/10/04 11:04:39;;;;;;;;;;;20.90;66.40;;;;;;4994992;28;1068;-70
2021/10/04 11:07:04;;;;;;;;;;;20.90;64.40;;;;;;4995242;28;1902;-72
2021/10/04 11:09:48;;;;;;;;;;;20.90;64.20;;;;;;4994627;28;1288;-72
2021/10/04 11:12:14;;;;;;;;;;;20.90;64.10;;;;;;5012254;28;1273;-71
2021/10/04 11:14:55;;;;;;;;;;;20.90;64.10;;;;;;4994927;28;1342;-72
2021/10/04 11:17:21;;;;;;;;;;;20.90;64.00;;;;;;5012346;28;1903;-71
2021/10/04 11:19:47;;;;;;;;;;;20.90;63.80;;;;;;4994369;28;1303;-71
2021/10/04 11:22:20;;;;;;;;;;;20.80;63.90;;;;;;5011880;28;1346;-71
2021/10/04 11:24:45;;;;;;;;;;;20.80;62.50;;;;;;5012425;28;1221;-71
2021/10/04 11:27:11;;;;;;;;;;;20.80;63.70;;;;;;5011845;28;1053;-71
2021/10/04 11:29:37;;;;;;;;;;;20.80;62.40;;;;;;5013736;28;1449;-71
2021/10/04 11:32:10;;;;;;;;;;;20.80;63.40;;;;;;4997864;28;1191;-71
2021/10/04 11:34:35;;;;;;;;;;;20.80;63.30;;;;;;5016088;28;1381;-71
2021/10/04 11:37:02;;;;;;;;;;;20.80;63.00;;;;;;5016111;28;1953;-71
2021/10/04 11:39:28;;;;;;;;;;;20.80;62.50;;;;;;5015267;28;1390;-70
2021/10/04 11:41:55;;;;;;;;;;;20.80;61.90;;;;;;5015177;28;1270;-70
2021/10/04 11:44:22;;;;;;;;;;;20.80;62.50;;;;;;4998415;28;1320;-72
2021/10/04 11:46:48;;;;;;;;;;;20.80;62.40;;;;;;4997994;28;1382;-71
2021/10/04 11:49:37;;;;;;;;;;;20.80;62.20;;;;;;4995725;28;2011;-70
2021/10/04 11:52:05;;;;;;;;;;;20.80;62.90;;;;;;5012127;28;1192;-71
2021/10/04 11:54:32;;;;;;;;;;;20.80;63.20;;;;;;5008829;28;1099;-71
2021/10/04 11:56:57;;;;;;;;;;;20.80;63.40;;;;;;5002635;28;1960;-71
2021/10/04 11:59:23;;;;;;;;;;;20.80;62.90;;;;;;5012991;28;1462;-70
2021/10/04 12:01:48;;;;;;;;;;;20.70;62.70;;;;;;5016852;28;1303;-70
2021/10/04 12:04:14;;;;;;;;;;;20.70;63.30;;;;;;4998092;28;1297;-71
2021/10/04 12:06:40;;;;;;;;;;;20.70;63.40;;;;;;4997856;28;1352;-71
2021/10/04 12:09:07;;;;;;;;;;;20.80;63.50;;;;;;5015357;28;1364;-71
2021/10/04 12:11:33;;;;;;;;;;;20.70;63.40;;;;;;4996985;28;1364;-71
2021/10/04 12:13:59;;;;;;;;;;;20.70;63.40;;;;;;5007658;28;1088;-71
2021/10/04 12:16:27;;;;;;;;;;;20.70;62.90;;;;;;5014910;28;1903;-70
2021/10/04 12:18:53;;;;;;;;;;;20.70;62.20;;;;;;5015219;28;1380;-71
2021/10/04 12:21:37;;;;;;;;;;;20.80;61.90;;;;;;5015092;28;1352;-71
2021/10/04 12:24:20;;;;;;;;;;;20.70;62.50;;;;;;5014786;28;1297;-71
2021/10/04 12:26:46;;;;;;;;;;;20.70;62.00;;;;;;5015043;28;1298;-71
2021/10/04 12:29:11;;;;;;;;;;;20.70;62.60;;;;;;5015134;28;1316;-71
2021/10/04 12:31:37;;;;;;;;;;;20.70;62.60;;;;;;5013963;28;1244;-71
2021/10/04 12:34:22;;;;;;;;;;;20.70;61.90;;;;;;5015043;28;1671;-71
2021/10/04 12:36:47;;;;;;;;;;;20.70;62.70;;;;;;5015528;28;1949;-71
2021/10/04 12:39:13;;;;;;;;;;;20.70;62.80;;;;;;4997563;28;1352;-71
2021/10/04 12:41:42;;;;;;;;;;;20.70;62.20;;;;;;4995877;28;1497;-72
2021/10/04 12:44:08;;;;;;;;;;;20.70;61.60;;;;;;4997365;28;1321;-71
2021/10/04 12:46:34;;;;;;;;;;;20.70;61.20;;;;;;5014410;28;1232;-71
2021/10/04 12:49:03;;;;;;;;;;;20.70;61.00;;;;;;5014629;28;1267;-71
2021/10/04 12:51:28;;;;;;;;;;;20.70;61.90;;;;;;4996765;28;1316;-71
2021/10/04 12:53:54;;;;;;;;;;;20.70;62.20;;;;;;5014724;28;1348;-72
2021/10/04 12:56:21;;;;;;;;;;;20.70;62.10;;;;;;4996832;28;1961;-71
2021/10/04 12:58:57;;;;;;;;;;;20.70;62.20;;;;;;4996856;28;1371;-71
2021/10/04 13:01:22;;;;;;;;;;;20.70;62.20;;;;;;4996659;28;1334;-70
2021/10/04 13:04:09;;;;;;;;;;;20.70;62.10;;;;;;5014786;28;1065;-71
2021/10/04 13:06:35;;;;;;;;;;;20.70;62.40;;;;;;5014362;28;1264;-71
2021/10/04 13:09:01;;;;;;;;;;;20.70;62.50;;;;;;5014495;28;1282;-71
2021/10/04 13:11:26;;;;;;;;;;;20.60;62.20;;;;;;4995552;28;1274;-71
2021/10/04 13:13:52;;;;;;;;;;;20.70;62.70;;;;;;5014119;28;1282;-71
2021/10/04 13:16:17;;;;;;;;;;;20.70;62.40;;;;;;5014200;28;1953;-69
2021/10/04 13:18:43;;;;;;;;;;;20.70;61.80;;;;;;5014030;28;1314;-69
2021/10/04 13:21:08;;;;;;;;;;;20.70;62.40;;;;;;5013276;28;1399;-69
2021/10/04 13:23:34;;;;;;;;;;;20.60;62.50;;;;;;5014432;28;1092;-69
2021/10/04 13:25:59;;;;;;;;;;;20.70;62.70;;;;;;5013897;28;1241;-69
2021/10/04 13:28:25;;;;;;;;;;;20.60;62.90;;;;;;5014161;28;1100;-69
2021/10/04 13:30:50;;;;;;;;;;;20.60;63.20;;;;;;4980828;28;1393;-69
2021/10/04 13:33:16;;;;;;;;;;;20.60;63.30;;;;;;4994406;28;1368;-69
2021/10/04 13:35:41;;;;;;;;;;;20.60;63.50;;;;;;4993990;28;1894;-69
2021/10/04 13:38:07;;;;;;;;;;;20.60;63.70;;;;;;4994330;28;1308;-69
2021/10/04 13:40:33;;;;;;;;;;;20.70;64.10;;;;;;4979465;28;1345;-69
2021/10/04 13:43:02;;;;;;;;;;;20.70;64.30;;;;;;5011499;28;1333;-69
2021/10/04 13:45:27;;;;;;;;;;;20.70;64.70;;;;;;5010659;28;1232;-69
2021/10/04 13:47:52;;;;;;;;;;;20.70;64.90;;;;;;5009112;28;1088;-69
2021/10/04 13:50:20;;;;;;;;;;;20.70;65.10;;;;;;5011605;28;1379;-69
2021/10/04 13:52:46;;;;;;;;;;;20.70;65.30;;;;;;5011534;28;1225;-69
2021/10/04 13:55:11;;;;;;;;;;;20.70;65.40;;;;;;5012931;28;1261;-69
2021/10/04 13:57:37;;;;;;;;;;;20.70;65.50;;;;;;5012355;28;1903;-69
2021/10/04 14:00:04;;;;;;;;;;;20.70;65.60;;;;;;5012375;28;1351;-69
2021/10/04 14:02:29;;;;;;;;;;;20.70;65.70;;;;;;5013303;28;1371;-69
2021/10/04 14:04:55;;;;;;;;;;;20.70;65.90;;;;;;5012987;28;1280;-69
2021/10/04 14:07:20;;;;;;;;;;;20.70;66.00;;;;;;5013745;28;1358;-69
2021/10/04 14:09:46;;;;;;;;;;;20.70;66.10;;;;;;5013272;28;1339;-69
2021/10/04 14:12:11;;;;;;;;;;;20.70;66.10;;;;;;5012634;28;1502;-69
2021/10/04 14:14:37;;;;;;;;;;;20.70;66.20;;;;;;5019795;28;2515;-69
2021/10/04 14:17:02;;;;;;;;;;;20.70;66.40;;;;;;5023636;28;1906;-69
2021/10/04 14:19:28;;;;;;;;;;;20.70;66.40;;;;;;5013052;28;1351;-69
2021/10/04 14:21:53;;;;;;;;;;;20.70;66.60;;;;;;5012309;28;1281;-68
2021/10/04 14:24:19;;;;;;;;;;;20.70;66.70;;;;;;5012903;28;1268;-69
2021/10/04 14:26:44;;;;;;;;;;;20.70;66.70;;;;;;5012996;28;1347;-70